Terminal Aerodrome Forecast
Issued by NWS

Home | Current Version | Previous Version | Text Only | Print | Product List | Glossary On
Versions: 1 2 3 4 5 6 7 8 9 10 11 12 13 14
624
FTUS45 KRIW 260211 AAA
TAFRKS
TAF AMD
KRKS 260211Z 2602/2624 30008KT P6SM -RA SCT015 BKN030
      TEMPO 2602/2605 6SM -RA BR BKN010
     FM260600 29014G20KT P6SM VCSH SCT025 BKN035
     FM260900 29012KT P6SM SCT035 BKN060
     FM261600 27008KT P6SM SCT060 SCT100=

USA.gov is the U.S. government's official web portal to all federal, state and local government web resources and services.